Time,TemperatureF,DewpointF,PressureIn,WindDirection,WindDirectionDegrees,WindSpeedMPH,WindSpeedGustMPH,Humidity,HourlyPrecipIn,Conditions,Clouds,dailyrainin,SolarRadiationWatts/m^2,SoftwareType,DateUTC
2013-02-20 00:42:00,25.0,21.0,-100.00,WSW,248,3.0,5.0,84,-99.99,,,0.00,0.000000,,2013-02-20 08:42:00,
2013-02-20 00:52:00,25.0,21.0,-100.00,WSW,248,3.0,5.0,84,-99.99,,,0.00,0.000000,,2013-02-20 08:52:00,
2013-02-20 01:01:00,25.0,21.0,-100.00,WSW,248,3.0,5.0,84,-99.99,,,0.00,0.000000,,2013-02-20 09:01:00,
2013-02-20 01:11:00,25.0,21.0,-100.00,WSW,248,3.0,5.0,84,-99.99,,,0.00,0.000000,,2013-02-20 09:11:00,
2013-02-20 01:32:00,27.0,22.0,-100.00,West,273,4.0,6.0,80,0.00,,,0.00,0.000000,,2013-02-20 09:32:00,
2013-02-20 01:42:00,27.0,22.0,-100.00,West,273,4.0,6.0,80,0.00,,,0.00,0.000000,,2013-02-20 09:42:00,
2013-02-20 01:52:00,27.0,22.0,-100.00,West,273,4.0,6.0,80,0.00,,,0.00,0.000000,,2013-02-20 09:52:00,
2013-02-20 02:01:00,27.0,22.0,-100.00,West,273,4.0,6.0,80,0.00,,,0.00,0.000000,,2013-02-20 10:01:00,
2013-02-20 02:12:00,27.0,22.0,-100.00,West,273,4.0,6.0,80,0.00,,,0.00,0.000000,,2013-02-20 10:12:00,
2013-02-20 02:32:00,27.0,23.0,-100.00,SW,234,4.0,9.0,84,0.00,,,0.00,0.000000,,2013-02-20 10:32:00,
2013-02-20 02:42:00,27.0,23.0,-100.00,SW,234,4.0,9.0,84,0.00,,,0.00,0.000000,,2013-02-20 10:42:00,
2013-02-20 02:52:00,27.0,23.0,-100.00,SW,234,4.0,9.0,84,0.00,,,0.00,0.000000,,2013-02-20 10:52:00,
2013-02-20 03:02:00,27.0,23.0,-100.00,SW,234,4.0,9.0,84,0.00,,,0.00,0.000000,,2013-02-20 11:02:00,
2013-02-20 03:11:00,27.0,23.0,-100.00,SW,234,4.0,9.0,84,0.00,,,0.00,0.000000,,2013-02-20 11:11:00,
2013-02-20 03:42:00,25.0,22.0,-100.00,WSW,253,5.0,8.0,87,0.00,,,0.00,0.000000,,2013-02-20 11:42:00,
2013-02-20 03:52:00,25.0,22.0,-100.00,WSW,253,5.0,8.0,87,0.00,,,0.00,0.000000,,2013-02-20 11:52:00,
2013-02-20 04:01:00,25.0,22.0,-100.00,WSW,253,5.0,8.0,87,0.00,,,0.00,0.000000,,2013-02-20 12:01:00,
2013-02-20 04:11:00,25.0,22.0,-100.00,WSW,253,5.0,8.0,87,0.00,,,0.00,0.000000,,2013-02-20 12:11:00,
2013-02-20 04:32:00,24.0,21.0,-100.00,SW,225,4.0,6.0,88,0.00,,,0.00,0.000000,,2013-02-20 12:32:00,
2013-02-20 04:42:00,24.0,21.0,-100.00,SW,225,4.0,6.0,88,0.00,,,0.00,0.000000,,2013-02-20 12:42:00,
2013-02-20 04:53:00,24.0,21.0,-100.00,SW,225,4.0,6.0,88,0.00,,,0.00,0.000000,,2013-02-20 12:53:00,
2013-02-20 05:01:00,24.0,21.0,-100.00,SW,225,4.0,6.0,88,0.00,,,0.00,0.000000,,2013-02-20 13:01:00,
2013-02-20 05:11:00,24.0,21.0,-100.00,SW,225,4.0,6.0,88,0.00,,,0.00,0.000000,,2013-02-20 13:11:00,
2013-02-20 06:42:00,26.0,22.0,-100.00,WNW,298,5.0,10.0,84,-99.99,,,0.00,0.000000,,2013-02-20 14:42:00,
2013-02-20 06:52:00,26.0,22.0,-100.00,WNW,298,5.0,10.0,84,-99.99,,,0.00,0.000000,,2013-02-20 14:52:00,
2013-02-20 07:01:00,26.0,22.0,-100.00,WNW,298,5.0,10.0,84,-99.99,,,0.00,0.000000,,2013-02-20 15:01:00,
2013-02-20 07:11:00,26.0,22.0,-100.00,WNW,298,5.0,10.0,84,-99.99,,,0.00,0.000000,,2013-02-20 15:11:00,
2013-02-20 07:42:00,26.0,22.0,-100.00,WSW,257,5.0,10.0,86,0.00,,,0.00,4.000000,,2013-02-20 15:42:00,
2013-02-20 07:52:00,26.0,22.0,-100.00,WSW,257,5.0,10.0,86,0.00,,,0.00,4.000000,,2013-02-20 15:52:00,
2013-02-20 08:01:00,26.0,22.0,-100.00,WSW,257,5.0,10.0,86,0.00,,,0.00,4.000000,,2013-02-20 16:01:00,
2013-02-20 08:11:00,26.0,22.0,-100.00,WSW,257,5.0,10.0,86,0.00,,,0.00,4.000000,,2013-02-20 16:11:00,
2013-02-20 08:42:00,27.0,23.0,-100.00,WNW,282,6.0,10.0,84,0.00,,,0.00,54.000000,,2013-02-20 16:42:00,
2013-02-20 08:52:00,27.0,23.0,-100.00,WNW,282,6.0,10.0,84,0.00,,,0.00,54.000000,,2013-02-20 16:52:00,
2013-02-20 09:01:00,27.0,23.0,-100.00,WNW,282,6.0,10.0,84,0.00,,,0.00,54.000000,,2013-02-20 17:01:00,
2013-02-20 09:11:00,27.0,23.0,-100.00,WNW,282,6.0,10.0,84,0.00,,,0.00,54.000000,,2013-02-20 17:11:00,
2013-02-20 09:42:00,31.0,24.0,-100.00,West,266,3.0,7.0,75,0.00,,,0.00,272.000000,,2013-02-20 17:42:00,
2013-02-20 09:52:00,31.0,24.0,-100.00,West,266,3.0,7.0,75,0.00,,,0.00,272.000000,,2013-02-20 17:52:00,
2013-02-20 10:02:00,31.0,24.0,-100.00,West,266,3.0,7.0,75,0.00,,,0.00,272.000000,,2013-02-20 18:02:00,
2013-02-20 10:11:00,31.0,24.0,-100.00,West,266,3.0,7.0,75,0.00,,,0.00,272.000000,,2013-02-20 18:11:00,
2013-02-20 10:32:00,30.0,22.0,-100.00,WNW,294,10.0,15.0,71,0.00,,,0.00,269.000000,,2013-02-20 18:32:00,
2013-02-20 10:42:00,30.0,22.0,-100.00,WNW,294,10.0,15.0,71,0.00,,,0.00,269.000000,,2013-02-20 18:42:00,
2013-02-20 10:52:00,30.0,22.0,-100.00,WNW,294,10.0,15.0,71,0.00,,,0.00,269.000000,,2013-02-20 18:52:00,
2013-02-20 11:01:00,30.0,22.0,-100.00,WNW,294,10.0,15.0,71,0.00,,,0.00,269.000000,,2013-02-20 19:01:00,
2013-02-20 11:11:00,30.0,22.0,-100.00,WNW,294,10.0,15.0,71,0.00,,,0.00,269.000000,,2013-02-20 19:11:00,
2013-02-20 11:32:00,32.0,22.0,-100.00,NNE,29,3.0,12.0,65,0.00,,,0.00,291.000000,,2013-02-20 19:32:00,
2013-02-20 11:42:00,32.0,22.0,-100.00,NNE,29,3.0,12.0,65,0.00,,,0.00,291.000000,,2013-02-20 19:42:00,
2013-02-20 11:52:00,32.0,22.0,-100.00,NNE,29,3.0,12.0,65,0.00,,,0.00,291.000000,,2013-02-20 19:52:00,
2013-02-20 12:01:00,32.0,22.0,-100.00,NNE,29,3.0,12.0,65,0.00,,,0.00,291.000000,,2013-02-20 20:01:00,
2013-02-20 12:11:00,32.0,22.0,-100.00,NNE,29,3.0,12.0,65,0.00,,,0.00,291.000000,,2013-02-20 20:11:00,
2013-02-20 12:41:00,36.0,22.0,-100.00,East,91,4.0,8.0,56,0.00,,,0.00,462.000000,,2013-02-20 20:41:00,
2013-02-20 12:51:00,36.0,22.0,-100.00,East,91,4.0,8.0,56,0.00,,,0.00,462.000000,,2013-02-20 20:51:00,
2013-02-20 13:01:00,36.0,22.0,-100.00,East,91,4.0,8.0,56,0.00,,,0.00,462.000000,,2013-02-20 21:01:00,
2013-02-20 13:11:00,36.0,22.0,-100.00,East,91,4.0,8.0,56,0.00,,,0.00,462.000000,,2013-02-20 21:11:00,
2013-02-20 13:42:00,39.0,21.0,-100.00,West,262,5.0,10.0,49,0.00,,,0.00,561.000000,,2013-02-20 21:42:00,
2013-02-20 13:52:00,39.0,21.0,-100.00,West,262,5.0,10.0,49,0.00,,,0.00,561.000000,,2013-02-20 21:52:00,
2013-02-20 14:01:00,39.0,21.0,-100.00,West,262,5.0,10.0,49,0.00,,,0.00,561.000000,,2013-02-20 22:01:00,
2013-02-20 14:11:00,39.0,21.0,-100.00,West,262,5.0,10.0,49,0.00,,,0.00,561.000000,,2013-02-20 22:11:00,
2013-02-20 14:43:00,35.0,18.0,-100.00,SW,227,10.0,21.0,49,0.00,,,0.00,368.000000,,2013-02-20 22:43:00,
2013-02-20 14:51:00,35.0,18.0,-100.00,SW,227,10.0,21.0,49,0.00,,,0.00,368.000000,,2013-02-20 22:51:00,
2013-02-20 15:01:00,35.0,18.0,-100.00,SW,227,10.0,21.0,49,0.00,,,0.00,368.000000,,2013-02-20 23:01:00,
2013-02-20 15:12:00,35.0,18.0,-100.00,SW,227,10.0,21.0,49,0.00,,,0.00,368.000000,,2013-02-20 23:12:00,
2013-02-20 15:32:00,36.0,18.0,-100.00,West,266,8.0,14.0,47,0.00,,,0.00,378.000000,,2013-02-20 23:32:00,
2013-02-20 15:42:00,36.0,18.0,-100.00,West,266,8.0,14.0,47,0.00,,,0.00,378.000000,,2013-02-20 23:42:00,
2013-02-20 15:52:00,36.0,18.0,-100.00,West,266,8.0,14.0,47,0.00,,,0.00,378.000000,,2013-02-20 23:52:00,
2013-02-20 16:02:00,36.0,18.0,-100.00,West,266,8.0,14.0,47,0.00,,,0.00,378.000000,,2013-02-21 00:02:00,
2013-02-20 16:11:00,36.0,18.0,-100.00,West,266,8.0,14.0,47,0.00,,,0.00,378.000000,,2013-02-21 00:11:00,
2013-02-20 16:32:00,35.0,19.0,-100.00,WNW,290,7.0,14.0,52,0.00,,,0.00,174.000000,,2013-02-21 00:32:00,
2013-02-20 16:42:00,35.0,19.0,-100.00,WNW,290,7.0,14.0,52,0.00,,,0.00,174.000000,,2013-02-21 00:42:00,
2013-02-20 16:52:00,35.0,19.0,-100.00,WNW,290,7.0,14.0,52,0.00,,,0.00,174.000000,,2013-02-21 00:52:00,
2013-02-20 17:01:00,35.0,19.0,-100.00,WNW,290,7.0,14.0,52,0.00,,,0.00,174.000000,,2013-02-21 01:01:00,
2013-02-20 17:11:00,35.0,19.0,-100.00,WNW,290,7.0,14.0,52,0.00,,,0.00,174.000000,,2013-02-21 01:11:00,
2013-02-20 17:32:00,32.0,19.0,-100.00,WNW,291,8.0,12.0,59,0.00,,,0.00,61.000000,,2013-02-21 01:32:00,
2013-02-20 17:42:00,32.0,19.0,-100.00,WNW,291,8.0,12.0,59,0.00,,,0.00,61.000000,,2013-02-21 01:42:00,
2013-02-20 17:52:00,32.0,19.0,-100.00,WNW,291,8.0,12.0,59,0.00,,,0.00,61.000000,,2013-02-21 01:52:00,
2013-02-20 18:01:00,32.0,19.0,-100.00,WNW,291,8.0,12.0,59,0.00,,,0.00,61.000000,,2013-02-21 02:01:00,
2013-02-20 18:11:00,32.0,19.0,-100.00,WNW,291,8.0,12.0,59,0.00,,,0.00,61.000000,,2013-02-21 02:11:00,
2013-02-20 18:32:00,28.0,26.0,-100.00,West,271,6.0,15.0,92,0.00,,,0.00,1.000000,,2013-02-21 02:32:00,
2013-02-20 18:42:00,28.0,26.0,-100.00,West,271,6.0,15.0,92,0.00,,,0.00,1.000000,,2013-02-21 02:42:00,
2013-02-20 18:52:00,28.0,26.0,-100.00,West,271,6.0,15.0,92,0.00,,,0.00,1.000000,,2013-02-21 02:52:00,
2013-02-20 19:01:00,28.0,26.0,-100.00,West,271,6.0,15.0,92,0.00,,,0.00,1.000000,,2013-02-21 03:01:00,
2013-02-20 19:11:00,28.0,26.0,-100.00,West,271,6.0,15.0,92,0.00,,,0.00,1.000000,,2013-02-21 03:11:00,
2013-02-20 19:42:00,27.0,25.0,-100.00,WNW,300,3.0,7.0,91,0.00,,,0.00,0.000000,,2013-02-21 03:42:00,
2013-02-20 19:52:00,27.0,25.0,-100.00,WNW,300,3.0,7.0,91,0.00,,,0.00,0.000000,,2013-02-21 03:52:00,
2013-02-20 20:01:00,27.0,25.0,-100.00,WNW,300,3.0,7.0,91,0.00,,,0.00,0.000000,,2013-02-21 04:01:00,
2013-02-20 20:11:00,27.0,25.0,-100.00,WNW,300,3.0,7.0,91,0.00,,,0.00,0.000000,,2013-02-21 04:11:00,
2013-02-20 20:32:00,27.0,25.0,-100.00,SSE,155,1.0,3.0,92,0.00,,,0.00,0.000000,,2013-02-21 04:32:00,
2013-02-20 20:42:00,27.0,25.0,-100.00,SSE,155,1.0,3.0,92,0.00,,,0.00,0.000000,,2013-02-21 04:42:00,
2013-02-20 20:52:00,27.0,25.0,-100.00,SSE,155,1.0,3.0,92,0.00,,,0.00,0.000000,,2013-02-21 04:52:00,
2013-02-20 21:02:00,27.0,25.0,-100.00,SSE,155,1.0,3.0,92,0.00,,,0.00,0.000000,,2013-02-21 05:02:00,
2013-02-20 21:12:00,27.0,25.0,-100.00,SSE,155,1.0,3.0,92,0.00,,,0.00,0.000000,,2013-02-21 05:12:00,
2013-02-20 21:37:00,27.0,25.0,-100.00,SSE,157,4.0,5.0,93,0.00,,,0.00,0.000000,,2013-02-21 05:37:00,
2013-02-20 21:46:00,27.0,25.0,-100.00,SSE,157,4.0,5.0,93,0.00,,,0.00,0.000000,,2013-02-21 05:46:00,
2013-02-20 21:58:00,27.0,25.0,-100.00,SSE,157,4.0,5.0,93,0.00,,,0.00,0.000000,,2013-02-21 05:58:00,
2013-02-20 22:11:00,27.0,25.0,-100.00,SSE,157,4.0,5.0,93,0.00,,,0.00,0.000000,,2013-02-21 06:11:00,
2013-02-20 22:31:00,27.0,26.0,-100.00,SE,136,4.0,6.0,94,0.00,,,0.00,0.000000,,2013-02-21 06:31:00,
2013-02-20 22:41:00,27.0,26.0,-100.00,SE,136,4.0,6.0,94,0.00,,,0.00,0.000000,,2013-02-21 06:41:00,
2013-02-20 22:51:00,27.0,26.0,-100.00,SE,136,4.0,6.0,94,0.00,,,0.00,0.000000,,2013-02-21 06:51:00,
2013-02-20 23:01:00,27.0,26.0,-100.00,SE,136,4.0,6.0,94,0.00,,,0.00,0.000000,,2013-02-21 07:01:00,
2013-02-20 23:11:00,27.0,26.0,-100.00,SE,136,4.0,6.0,94,0.00,,,0.00,0.000000,,2013-02-21 07:11:00,
2013-02-20 23:32:00,27.0,24.0,-100.00,South,173,5.0,7.0,89,0.00,,,-99.99,0.000000,,2013-02-21 07:32:00,
2013-02-20 23:42:00,27.0,24.0,-100.00,South,173,5.0,7.0,89,0.00,,,-99.99,0.000000,,2013-02-21 07:42:00,
2013-02-20 23:52:00,27.0,24.0,-100.00,South,173,5.0,7.0,89,0.00,,,-99.99,0.000000,,2013-02-21 07:52:00,